Time;durP1;ratioP1;P1;durP2;ratioP2;P2;SDS_P1;SDS_P2;PMS_P1;PMS_P2;Temp;Humidity;BMP_temperature;BMP_pressure;BME280_temperature;BME280_humidity;BME280_pressure;Samples;Min_cycle;Max_cycle;Signal;HPM_P1;HPM_P2
2021/01/17 00:00:14;;;;;;;60.28;31.65;;;;;;;;;;5087080;28;20043;-73
2021/01/17 00:02:42;;;;;;;61.65;31.27;;;;;;;;;;5084884;28;20040;-73
2021/01/17 00:05:10;;;;;;;68.30;33.13;;;;;;;;;;5086341;28;20072;-73
2021/01/17 00:07:36;;;;;;;64.30;32.17;;;;;;;;;;5088057;28;20048;-73
2021/01/17 00:10:05;;;;;;;61.60;31.77;;;;;;;;;;5087115;28;20036;-73
2021/01/17 00:12:32;;;;;;;66.88;36.55;;;;;;;;;;5085448;28;20040;-73
2021/01/17 00:14:58;;;;;;;67.88;33.13;;;;;;;;;;5087072;28;20048;-73
2021/01/17 00:17:24;;;;;;;73.75;36.33;;;;;;;;;;5087850;28;20043;-73
2021/01/17 00:19:51;;;;;;;67.38;34.45;;;;;;;;;;5086567;28;20040;-73
2021/01/17 00:22:20;;;;;;;70.00;34.47;;;;;;;;;;5085628;28;20040;-73
2021/01/17 00:24:46;;;;;;;72.40;35.67;;;;;;;;;;5087601;28;20043;-73
2021/01/17 00:27:13;;;;;;;74.78;37.03;;;;;;;;;;5087666;28;20059;-73
2021/01/17 00:29:40;;;;;;;73.35;35.45;;;;;;;;;;5086719;28;20040;-73
2021/01/17 00:32:10;;;;;;;71.22;34.30;;;;;;;;;;5088132;28;20097;-73
2021/01/17 00:34:36;;;;;;;75.85;36.13;;;;;;;;;;5090209;28;20412;-73
2021/01/17 00:37:03;;;;;;;73.63;35.03;;;;;;;;;;5087079;28;20056;-73
2021/01/17 00:39:29;;;;;;;85.50;37.95;;;;;;;;;;5088266;28;20051;-73
2021/01/17 00:41:55;;;;;;;72.55;32.30;;;;;;;;;;5085760;28;20096;-74
2021/01/17 00:44:21;;;;;;;75.55;33.78;;;;;;;;;;5086857;28;20466;-74
2021/01/17 00:46:48;;;;;;;85.47;36.47;;;;;;;;;;5087697;28;20479;-73
2021/01/17 00:49:14;;;;;;;82.18;35.42;;;;;;;;;;5088868;28;20085;-73
2021/01/17 00:51:44;;;;;;;84.28;37.25;;;;;;;;;;5093314;28;20119;-73
2021/01/17 00:54:10;;;;;;;92.65;38.80;;;;;;;;;;5093118;28;20110;-73
2021/01/17 00:56:37;;;;;;;88.82;38.05;;;;;;;;;;5091388;28;20067;-73
2021/01/17 00:59:04;;;;;;;93.10;37.65;;;;;;;;;;5091007;28;20086;-73
2021/01/17 01:01:44;;;;;;;84.45;37.85;;;;;;;;;;5094346;28;20044;-73
2021/01/17 01:04:12;;;;;;;82.88;36.90;;;;;;;;;;5090769;28;20392;-73
2021/01/17 01:06:38;;;;;;;91.55;40.03;;;;;;;;;;5092444;28;20052;-73
2021/01/17 01:09:07;;;;;;;79.72;36.80;;;;;;;;;;5091222;28;20074;-73
2021/01/17 01:11:33;;;;;;;90.20;37.45;;;;;;;;;;5091277;28;20036;-73
2021/01/17 01:14:00;;;;;;;94.32;37.50;;;;;;;;;;5093315;28;20126;-73
2021/01/17 01:16:26;;;;;;;91.40;39.05;;;;;;;;;;5090612;28;20437;-74
2021/01/17 01:18:52;;;;;;;97.85;41.50;;;;;;;;;;5092885;28;20046;-73
2021/01/17 01:21:27;;;;;;;96.47;40.92;;;;;;;;;;5093382;28;20062;-73
2021/01/17 01:23:53;;;;;;;105.03;41.03;;;;;;;;;;5090038;28;20385;-74
2021/01/17 01:26:21;;;;;;;117.30;41.35;;;;;;;;;;5086222;28;20040;-73
2021/01/17 01:28:48;;;;;;;112.78;42.28;;;;;;;;;;5087764;28;20380;-74
2021/01/17 01:31:21;;;;;;;116.65;42.70;;;;;;;;;;5088854;28;20040;-73
2021/01/17 01:33:49;;;;;;;117.10;43.03;;;;;;;;;;5089938;28;20055;-73
2021/01/17 01:36:22;;;;;;;102.80;40.42;;;;;;;;;;5092100;28;20036;-74
2021/01/17 01:38:48;;;;;;;106.75;41.63;;;;;;;;;;5095008;28;20048;-74
2021/01/17 01:41:15;;;;;;;112.70;41.70;;;;;;;;;;5093793;28;20403;-73
2021/01/17 01:43:41;;;;;;;114.60;43.17;;;;;;;;;;5087921;28;20448;-73
2021/01/17 01:46:11;;;;;;;130.05;45.53;;;;;;;;;;5092802;28;20047;-73
2021/01/17 01:48:37;;;;;;;129.13;45.60;;;;;;;;;;5092907;28;20563;-73
2021/01/17 01:51:04;;;;;;;128.43;45.75;;;;;;;;;;5091011;28;20036;-73
2021/01/17 01:53:30;;;;;;;152.63;46.75;;;;;;;;;;5088818;28;20036;-74
2021/01/17 01:56:02;;;;;;;161.00;46.90;;;;;;;;;;5090928;28;20047;-74
2021/01/17 01:58:29;;;;;;;135.73;45.15;;;;;;;;;;5089474;28;20047;-73
2021/01/17 02:00:55;;;;;;;134.65;45.92;;;;;;;;;;5090814;28;20039;-73
2021/01/17 02:03:22;;;;;;;138.07;48.90;;;;;;;;;;5092765;28;20122;-73
2021/01/17 02:05:48;;;;;;;152.60;49.17;;;;;;;;;;5091500;28;20048;-73
2021/01/17 02:08:30;;;;;;;157.13;50.80;;;;;;;;;;5090642;28;20040;-74
2021/01/17 02:11:02;;;;;;;113.15;43.40;;;;;;;;;;5090260;28;20418;-74
2021/01/17 02:13:32;;;;;;;141.85;45.50;;;;;;;;;;5088849;28;20052;-73
2021/01/17 02:15:59;;;;;;;140.48;46.25;;;;;;;;;;5087751;28;20044;-73
2021/01/17 02:18:26;;;;;;;163.32;50.00;;;;;;;;;;5090947;28;20081;-73
2021/01/17 02:20:53;;;;;;;159.98;48.33;;;;;;;;;;5091698;28;20445;-74
2021/01/17 02:23:22;;;;;;;148.57;47.75;;;;;;;;;;5089222;28;20040;-73
2021/01/17 02:25:48;;;;;;;149.85;47.70;;;;;;;;;;5089323;28;20036;-73
2021/01/17 02:28:16;;;;;;;128.20;44.85;;;;;;;;;;5091646;28;20048;-74
2021/01/17 02:30:45;;;;;;;147.43;48.80;;;;;;;;;;5089281;28;20042;-73
2021/01/17 02:33:13;;;;;;;138.10;45.45;;;;;;;;;;5088442;28;20036;-74
2021/01/17 02:35:40;;;;;;;139.48;45.88;;;;;;;;;;5090340;28;20032;-73
2021/01/17 02:38:15;;;;;;;136.48;46.22;;;;;;;;;;5089274;28;20391;-73
2021/01/17 02:40:43;;;;;;;157.43;50.47;;;;;;;;;;5087889;28;20109;-74
2021/01/17 02:43:10;;;;;;;141.55;46.17;;;;;;;;;;5088446;28;20097;-73
2021/01/17 02:45:36;;;;;;;124.47;43.10;;;;;;;;;;5089729;28;20163;-73
2021/01/17 02:48:03;;;;;;;124.68;43.97;;;;;;;;;;5091306;28;20060;-73
2021/01/17 02:50:30;;;;;;;155.68;48.60;;;;;;;;;;5090437;28;20047;-74
2021/01/17 02:52:59;;;;;;;139.68;47.63;;;;;;;;;;5089821;28;20058;-73
2021/01/17 02:55:26;;;;;;;125.57;44.60;;;;;;;;;;5094982;28;20036;-73
2021/01/17 02:57:55;;;;;;;141.65;48.08;;;;;;;;;;5090267;28;20040;-73
2021/01/17 03:00:24;;;;;;;131.18;43.53;;;;;;;;;;5086975;28;20044;-73
2021/01/17 03:02:50;;;;;;;125.30;44.47;;;;;;;;;;5088297;28;20044;-73
2021/01/17 03:05:21;;;;;;;155.98;46.78;;;;;;;;;;5088153;28;20037;-73
2021/01/17 03:07:50;;;;;;;134.95;43.15;;;;;;;;;;5090785;28;20471;-73
2021/01/17 03:10:16;;;;;;;119.95;44.78;;;;;;;;;;5089910;28;20122;-73
2021/01/17 03:12:42;;;;;;;122.43;41.63;;;;;;;;;;5087869;28;20048;-73
2021/01/17 03:15:09;;;;;;;118.00;41.88;;;;;;;;;;5089683;28;20038;-73
2021/01/17 03:17:35;;;;;;;126.25;45.08;;;;;;;;;;5090228;28;20039;-73
2021/01/17 03:20:01;;;;;;;129.55;44.58;;;;;;;;;;5087548;28;20036;-73
2021/01/17 03:22:27;;;;;;;123.72;43.33;;;;;;;;;;5090018;28;20122;-74
2021/01/17 03:24:54;;;;;;;122.57;40.92;;;;;;;;;;5090271;28;20798;-74
2021/01/17 03:27:20;;;;;;;109.63;42.35;;;;;;;;;;5086851;28;20483;-73
2021/01/17 03:29:46;;;;;;;117.47;41.13;;;;;;;;;;5087533;28;20036;-73
2021/01/17 03:32:12;;;;;;;106.32;40.15;;;;;;;;;;5088035;28;20510;-73
2021/01/17 03:34:39;;;;;;;105.35;39.97;;;;;;;;;;5087260;28;20028;-74
2021/01/17 03:37:06;;;;;;;101.10;40.42;;;;;;;;;;5089320;28;20040;-73
2021/01/17 03:39:32;;;;;;;104.70;39.10;;;;;;;;;;5090487;28;20040;-74
2021/01/17 03:41:59;;;;;;;100.82;37.53;;;;;;;;;;5086480;28;20142;-74
2021/01/17 03:44:25;;;;;;;107.40;38.10;;;;;;;;;;5091020;28;20395;-74
2021/01/17 03:46:51;;;;;;;108.07;39.55;;;;;;;;;;5091066;28;20040;-74
2021/01/17 03:49:17;;;;;;;104.97;37.90;;;;;;;;;;5087420;28;20069;-74
2021/01/17 03:51:44;;;;;;;105.10;38.33;;;;;;;;;;5087508;28;20070;-74
2021/01/17 03:54:10;;;;;;;98.13;37.78;;;;;;;;;;5086542;28;20051;-74
2021/01/17 03:56:36;;;;;;;111.10;39.28;;;;;;;;;;5088706;28;20047;-74
2021/01/17 03:59:02;;;;;;;119.20;42.20;;;;;;;;;;5088249;28;20464;-74
2021/01/17 04:01:29;;;;;;;113.13;40.70;;;;;;;;;;5087067;28;20593;-74
2021/01/17 04:03:57;;;;;;;120.78;40.65;;;;;;;;;;5087695;28;20061;-74
2021/01/17 04:06:25;;;;;;;104.53;39.72;;;;;;;;;;5088315;28;20249;-74
2021/01/17 04:08:52;;;;;;;144.80;43.92;;;;;;;;;;5087018;28;20036;-74
2021/01/17 04:11:18;;;;;;;108.70;37.20;;;;;;;;;;5089014;28;20070;-74
2021/01/17 04:13:44;;;;;;;115.15;38.53;;;;;;;;;;5086512;28;20051;-74
2021/01/17 04:16:11;;;;;;;105.60;39.35;;;;;;;;;;5088325;28;20067;-74
2021/01/17 04:18:37;;;;;;;99.82;37.92;;;;;;;;;;5086143;28;20043;-74
2021/01/17 04:21:03;;;;;;;115.03;37.75;;;;;;;;;;5087349;28;20369;-74
2021/01/17 04:23:29;;;;;;;95.28;37.95;;;;;;;;;;5087067;28;20047;-74
2021/01/17 04:25:56;;;;;;;104.47;37.47;;;;;;;;;;5086387;28;20040;-74
2021/01/17 04:28:22;;;;;;;102.93;36.58;;;;;;;;;;5087643;28;20036;-74
2021/01/17 04:30:48;;;;;;;120.25;38.13;;;;;;;;;;5089018;28;20338;-73
2021/01/17 04:33:18;;;;;;;97.00;35.70;;;;;;;;;;5088729;28;20538;-74
2021/01/17 04:35:44;;;;;;;92.65;35.08;;;;;;;;;;5086583;28;20036;-73
2021/01/17 04:38:10;;;;;;;91.57;33.92;;;;;;;;;;5086863;28;20059;-74
2021/01/17 04:40:37;;;;;;;98.38;36.03;;;;;;;;;;5084421;28;20472;-74
2021/01/17 04:43:07;;;;;;;99.45;34.17;;;;;;;;;;5102500;28;20118;-74
2021/01/17 04:45:34;;;;;;;85.20;32.97;;;;;;;;;;5086683;28;20318;-73
2021/01/17 04:48:01;;;;;;;103.53;35.70;;;;;;;;;;5085956;28;20081;-73
2021/01/17 04:50:29;;;;;;;90.20;33.35;;;;;;;;;;5086728;28;20116;-74
2021/01/17 04:52:59;;;;;;;93.85;34.05;;;;;;;;;;5088933;28;20496;-74
2021/01/17 04:55:26;;;;;;;78.63;32.17;;;;;;;;;;5086182;28;20403;-73
2021/01/17 04:57:52;;;;;;;82.20;32.40;;;;;;;;;;5089557;28;20036;-74
2021/01/17 05:00:25;;;;;;;71.47;30.63;;;;;;;;;;5088273;28;20403;-73
2021/01/17 05:03:10;;;;;;;85.72;32.40;;;;;;;;;;5087405;28;20663;-74
2021/01/17 05:05:58;;;;;;;82.97;30.70;;;;;;;;;;5101999;28;20068;-73
2021/01/17 05:08:25;;;;;;;86.13;33.20;;;;;;;;;;5085919;28;20036;-74
2021/01/17 05:11:08;;;;;;;97.28;34.17;;;;;;;;;;5086124;28;20044;-74
2021/01/17 05:13:36;;;;;;;92.82;34.58;;;;;;;;;;5084944;28;20123;-74
2021/01/17 05:16:04;;;;;;;96.03;34.22;;;;;;;;;;5091553;28;20115;-74
2021/01/17 05:18:30;;;;;;;94.10;33.13;;;;;;;;;;5102476;28;20065;-74
2021/01/17 05:20:57;;;;;;;90.68;34.35;;;;;;;;;;5086480;28;20097;-74
2021/01/17 05:23:24;;;;;;;77.60;30.35;;;;;;;;;;5087955;28;20059;-74
2021/01/17 05:25:50;;;;;;;93.93;33.03;;;;;;;;;;5085890;28;20101;-74
2021/01/17 05:28:16;;;;;;;94.93;34.50;;;;;;;;;;5088312;28;20040;-74
2021/01/17 05:30:48;;;;;;;93.45;33.03;;;;;;;;;;5086853;28;20054;-74
2021/01/17 05:33:16;;;;;;;93.55;32.90;;;;;;;;;;5087160;28;20056;-74
2021/01/17 05:35:42;;;;;;;95.97;33.05;;;;;;;;;;5087813;28;20141;-74
2021/01/17 05:38:13;;;;;;;90.38;33.22;;;;;;;;;;5091840;28;20193;-74
2021/01/17 05:40:40;;;;;;;85.15;30.35;;;;;;;;;;5092537;28;20089;-74
2021/01/17 05:43:08;;;;;;;92.57;32.67;;;;;;;;;;5090864;28;20044;-74
2021/01/17 05:45:35;;;;;;;84.45;31.70;;;;;;;;;;5092166;28;20036;-74
2021/01/17 05:48:21;;;;;;;80.82;29.95;;;;;;;;;;5090832;28;20052;-74
2021/01/17 05:51:08;;;;;;;90.32;31.98;;;;;;;;;;5091143;28;20139;-74
2021/01/17 05:53:34;;;;;;;89.53;33.08;;;;;;;;;;5090737;28;20040;-75
2021/01/17 05:56:15;;;;;;;86.75;31.33;;;;;;;;;;5089980;28;20139;-74
2021/01/17 05:58:44;;;;;;;90.07;32.88;;;;;;;;;;5087237;28;20048;-74
2021/01/17 06:01:16;;;;;;;87.68;32.58;;;;;;;;;;5090063;28;20068;-74
2021/01/17 06:03:49;;;;;;;98.00;33.95;;;;;;;;;;5088681;28;20115;-74
2021/01/17 06:06:24;;;;;;;102.10;33.47;;;;;;;;;;5089108;28;20068;-74
2021/01/17 06:08:52;;;;;;;87.60;31.90;;;;;;;;;;5090079;28;20387;-74
2021/01/17 06:11:18;;;;;;;87.40;33.50;;;;;;;;;;5089049;28;20040;-74
2021/01/17 06:13:52;;;;;;;93.25;33.88;;;;;;;;;;5088716;28;20043;-74
2021/01/17 06:16:24;;;;;;;108.78;34.75;;;;;;;;;;5089806;28;20494;-74
2021/01/17 06:18:53;;;;;;;99.05;33.45;;;;;;;;;;5088639;28;20071;-75
2021/01/17 06:21:20;;;;;;;103.05;34.15;;;;;;;;;;5089701;28;20173;-74
2021/01/17 06:23:54;;;;;;;106.90;34.33;;;;;;;;;;5088638;28;20059;-74
2021/01/17 06:26:24;;;;;;;103.47;35.58;;;;;;;;;;5090633;28;20038;-74
2021/01/17 06:28:50;;;;;;;102.82;35.30;;;;;;;;;;5090750;28;20180;-74
2021/01/17 06:31:20;;;;;;;95.80;35.42;;;;;;;;;;5090344;28;20395;-74
2021/01/17 06:33:48;;;;;;;104.32;34.67;;;;;;;;;;5090073;28;20404;-74
2021/01/17 06:36:15;;;;;;;99.85;33.40;;;;;;;;;;5091845;28;20047;-74
2021/01/17 06:38:42;;;;;;;114.55;36.60;;;;;;;;;;5089290;28;20036;-74
2021/01/17 06:41:08;;;;;;;109.03;36.55;;;;;;;;;;5088636;28;20036;-73
2021/01/17 06:43:39;;;;;;;129.98;37.03;;;;;;;;;;5090253;28;20050;-74
2021/01/17 06:46:05;;;;;;;139.90;38.67;;;;;;;;;;5087977;28;20041;-74
2021/01/17 06:48:32;;;;;;;136.48;38.80;;;;;;;;;;5090828;28;20375;-74
2021/01/17 06:51:15;;;;;;;136.23;37.05;;;;;;;;;;5089234;28;20436;-74
2021/01/17 06:53:50;;;;;;;140.23;36.53;;;;;;;;;;5088738;28;20127;-74
2021/01/17 06:56:19;;;;;;;153.52;38.90;;;;;;;;;;5087618;28;20067;-74
2021/01/17 06:58:46;;;;;;;145.05;39.67;;;;;;;;;;5090786;28;20040;-74
2021/01/17 07:01:14;;;;;;;148.18;39.90;;;;;;;;;;5090158;28;20115;-69
2021/01/17 07:03:51;;;;;;;145.18;39.95;;;;;;;;;;5088273;28;20148;-69
2021/01/17 07:06:26;;;;;;;154.90;41.53;;;;;;;;;;5088708;28;20057;-70
2021/01/17 07:09:00;;;;;;;151.93;39.20;;;;;;;;;;5085241;28;20143;-67
2021/01/17 07:11:33;;;;;;;149.93;38.95;;;;;;;;;;5084113;28;20040;-67
2021/01/17 07:14:05;;;;;;;156.13;38.92;;;;;;;;;;5083907;28;20040;-68
2021/01/17 07:16:32;;;;;;;164.80;40.67;;;;;;;;;;5084343;28;20036;-68
2021/01/17 07:19:03;;;;;;;150.73;40.13;;;;;;;;;;5088473;28;20044;-67
2021/01/17 07:21:37;;;;;;;164.80;42.60;;;;;;;;;;5082685;28;20043;-66
2021/01/17 07:24:04;;;;;;;152.82;41.15;;;;;;;;;;5087079;28;20428;-66
2021/01/17 07:26:36;;;;;;;167.57;41.83;;;;;;;;;;5088071;28;20051;-66
2021/01/17 07:29:03;;;;;;;178.05;41.88;;;;;;;;;;5084519;28;20395;-66
2021/01/17 07:31:36;;;;;;;171.18;43.55;;;;;;;;;;5089229;28;20040;-67
2021/01/17 07:34:10;;;;;;;189.23;42.65;;;;;;;;;;5085363;28;20088;-67
2021/01/17 07:36:38;;;;;;;181.75;42.63;;;;;;;;;;5088235;28;20044;-67
2021/01/17 07:39:06;;;;;;;181.35;43.25;;;;;;;;;;5086243;28;20072;-67
2021/01/17 07:41:37;;;;;;;177.35;43.05;;;;;;;;;;5088946;28;20040;-67
2021/01/17 07:44:03;;;;;;;181.68;43.25;;;;;;;;;;5086884;28;20075;-67
2021/01/17 07:46:31;;;;;;;153.80;42.28;;;;;;;;;;5092102;28;20067;-68
2021/01/17 07:49:01;;;;;;;169.35;42.70;;;;;;;;;;5095912;28;20090;-67
2021/01/17 07:51:27;;;;;;;175.45;41.80;;;;;;;;;;5086455;28;20158;-67
2021/01/17 07:54:04;;;;;;;180.48;40.70;;;;;;;;;;5090009;28;20109;-67
2021/01/17 07:56:32;;;;;;;180.85;41.65;;;;;;;;;;5090436;28;20400;-67
2021/01/17 07:59:00;;;;;;;189.40;42.63;;;;;;;;;;5089736;28;20157;-67
2021/01/17 08:01:34;;;;;;;175.00;44.05;;;;;;;;;;5086444;28;20040;-67
2021/01/17 08:04:00;;;;;;;;;;;;;;;;;;5090460;28;20439;-67
2021/01/17 08:06:35;;;;;;;187.70;43.55;;;;;;;;;;5089258;28;19919;-67
2021/01/17 08:09:02;;;;;;;191.93;43.63;;;;;;;;;;5091577;28;20181;-67
2021/01/17 08:11:55;;;;;;;200.93;45.35;;;;;;;;;;5096499;28;20043;-67
2021/01/17 08:14:23;;;;;;;218.35;45.85;;;;;;;;;;5091602;28;20122;-67
2021/01/17 08:17:09;;;;;;;231.45;46.88;;;;;;;;;;5092814;28;20040;-67
2021/01/17 08:19:37;;;;;;;217.68;47.28;;;;;;;;;;5087655;28;20067;-67
2021/01/17 08:22:38;;;;;;;200.25;45.22;;;;;;;;;;5086849;28;20107;-66
2021/01/17 08:25:05;;;;;;;202.95;43.28;;;;;;;;;;5087013;28;20399;-66
2021/01/17 08:27:33;;;;;;;194.45;40.45;;;;;;;;;;5087588;28;20044;-67
2021/01/17 08:30:06;;;;;;;216.43;45.78;;;;;;;;;;5090684;28;20044;-75
2021/01/17 08:32:36;;;;;;;230.45;47.50;;;;;;;;;;5087593;28;20579;-67
2021/01/17 08:35:17;;;;;;;221.60;45.63;;;;;;;;;;5087647;28;20048;-68
2021/01/17 08:37:44;;;;;;;213.00;44.35;;;;;;;;;;5092355;28;20052;-68
2021/01/17 08:40:11;;;;;;;210.50;45.08;;;;;;;;;;5086610;28;20177;-68
2021/01/17 08:42:39;;;;;;;204.32;47.63;;;;;;;;;;5088189;28;20047;-67
2021/01/17 08:45:25;;;;;;;220.05;44.63;;;;;;;;;;5087151;28;20558;-67
2021/01/17 08:47:52;;;;;;;251.50;45.70;;;;;;;;;;5090294;28;20048;-67
2021/01/17 08:50:28;;;;;;;227.98;47.60;;;;;;;;;;5092139;28;20067;-68
2021/01/17 08:53:15;;;;;;;230.43;49.65;;;;;;;;;;5086591;28;20044;-68
2021/01/17 08:55:41;;;;;;;246.48;49.58;;;;;;;;;;5089345;28;20036;-67
2021/01/17 08:58:08;;;;;;;258.98;54.03;;;;;;;;;;5087389;28;20044;-69
2021/01/17 09:00:50;;;;;;;242.60;51.30;;;;;;;;;;5091016;28;20091;-69
2021/01/17 09:03:25;;;;;;;233.45;49.42;;;;;;;;;;5087152;28;20066;-67
2021/01/17 09:05:52;;;;;;;231.30;48.35;;;;;;;;;;5086107;28;20044;-75
2021/01/17 09:08:19;;;;;;;237.20;51.30;;;;;;;;;;5087559;28;20044;-66
2021/01/17 09:10:46;;;;;;;216.10;49.35;;;;;;;;;;5087653;28;20097;-66
2021/01/17 09:13:19;;;;;;;236.55;49.08;;;;;;;;;;5092038;28;20054;-67
2021/01/17 09:15:57;;;;;;;199.15;45.13;;;;;;;;;;5089819;28;20126;-67
2021/01/17 09:18:24;;;;;;;232.25;49.85;;;;;;;;;;5092206;28;20036;-67
2021/01/17 09:20:52;;;;;;;221.07;45.25;;;;;;;;;;5090243;28;20044;-67
2021/01/17 09:23:19;;;;;;;232.07;47.47;;;;;;;;;;5091851;28;20043;-67
2021/01/17 09:25:47;;;;;;;199.93;45.17;;;;;;;;;;5092426;28;20055;-67
2021/01/17 09:28:14;;;;;;;217.23;49.30;;;;;;;;;;5088597;28;20137;-67
2021/01/17 09:30:48;;;;;;;229.00;48.88;;;;;;;;;;5093135;28;20046;-67
2021/01/17 09:33:15;;;;;;;224.38;49.97;;;;;;;;;;5094085;28;20044;-67
2021/01/17 09:35:41;;;;;;;204.90;46.17;;;;;;;;;;5090926;28;20096;-67
2021/01/17 09:38:12;;;;;;;214.23;46.90;;;;;;;;;;5091620;28;20100;-67
2021/01/17 09:40:39;;;;;;;205.38;44.45;;;;;;;;;;5093471;28;20044;-67
2021/01/17 09:43:06;;;;;;;213.68;45.70;;;;;;;;;;5088344;28;20151;-67
2021/01/17 09:45:33;;;;;;;220.80;46.17;;;;;;;;;;5092488;28;20044;-68
2021/01/17 09:48:00;;;;;;;219.93;46.70;;;;;;;;;;5093421;28;20052;-68
2021/01/17 09:50:30;;;;;;;221.13;46.42;;;;;;;;;;5091325;28;20119;-68
2021/01/17 09:53:04;;;;;;;242.30;48.72;;;;;;;;;;5090531;28;20071;-68
2021/01/17 09:55:30;;;;;;;267.10;49.63;;;;;;;;;;5093099;28;20039;-67
2021/01/17 09:57:56;;;;;;;253.18;49.08;;;;;;;;;;5089636;28;20553;-67
2021/01/17 10:00:23;;;;;;;279.30;52.67;;;;;;;;;;5091398;28;20070;-67
2021/01/17 10:02:49;;;;;;;261.77;50.90;;;;;;;;;;5095736;28;20094;-67
2021/01/17 10:05:26;;;;;;;247.63;50.47;;;;;;;;;;5093411;28;20037;-69
2021/01/17 10:08:00;;;;;;;229.05;50.80;;;;;;;;;;5091669;28;20108;-67
2021/01/17 10:10:26;;;;;;;230.40;50.90;;;;;;;;;;5088592;28;20122;-67
2021/01/17 10:12:53;;;;;;;215.55;49.63;;;;;;;;;;5086500;28;20412;-67
2021/01/17 10:15:20;;;;;;;245.75;52.97;;;;;;;;;;5090459;28;20051;-68
2021/01/17 10:17:47;;;;;;;253.02;52.45;;;;;;;;;;5088868;28;20063;-69
2021/01/17 10:20:28;;;;;;;222.88;50.90;;;;;;;;;;5089087;28;20040;-69
2021/01/17 10:22:58;;;;;;;202.63;45.28;;;;;;;;;;5089526;28;20059;-69
2021/01/17 10:25:24;;;;;;;181.73;45.13;;;;;;;;;;5088446;28;20495;-69
2021/01/17 10:27:57;;;;;;;202.90;46.75;;;;;;;;;;5087445;28;20124;-69
2021/01/17 10:30:26;;;;;;;206.50;47.50;;;;;;;;;;5089549;28;20056;-69
2021/01/17 10:32:56;;;;;;;173.07;45.20;;;;;;;;;;5088314;28;20036;-69
2021/01/17 10:35:23;;;;;;;223.23;48.35;;;;;;;;;;5083043;28;20032;-68
2021/01/17 10:37:51;;;;;;;213.57;45.90;;;;;;;;;;5085471;28;20067;-68
2021/01/17 10:40:25;;;;;;;199.27;49.50;;;;;;;;;;5089473;28;20040;-69
2021/01/17 10:42:52;;;;;;;203.68;46.78;;;;;;;;;;5089152;28;20039;-68
2021/01/17 10:45:19;;;;;;;204.15;47.75;;;;;;;;;;5088692;28;20067;-68
2021/01/17 10:47:47;;;;;;;198.88;46.17;;;;;;;;;;5090726;28;20039;-69
2021/01/17 10:50:14;;;;;;;201.23;44.08;;;;;;;;;;5094778;28;20103;-71
2021/01/17 10:52:42;;;;;;;204.95;48.45;;;;;;;;;;5090817;28;20052;-68
2021/01/17 10:55:13;;;;;;;203.43;46.67;;;;;;;;;;5092912;28;20036;-68
2021/01/17 10:57:41;;;;;;;207.13;48.20;;;;;;;;;;5097102;28;20441;-68
2021/01/17 11:00:08;;;;;;;167.85;45.17;;;;;;;;;;5085509;28;20108;-68
2021/01/17 11:02:34;;;;;;;191.98;45.15;;;;;;;;;;5090944;28;20052;-68
2021/01/17 11:05:02;;;;;;;422.90;66.55;;;;;;;;;;5092297;28;20067;-68
2021/01/17 11:07:29;;;;;;;256.48;52.22;;;;;;;;;;5099274;28;20051;-68
2021/01/17 11:09:56;;;;;;;145.90;43.42;;;;;;;;;;5092276;28;20054;-68
2021/01/17 11:12:35;;;;;;;180.85;43.85;;;;;;;;;;5086562;28;20491;-68
2021/01/17 11:15:10;;;;;;;153.45;44.08;;;;;;;;;;5088971;28;20064;-68
2021/01/17 11:17:36;;;;;;;132.30;39.30;;;;;;;;;;5098342;28;20051;-68
2021/01/17 11:20:04;;;;;;;122.10;38.50;;;;;;;;;;5095786;28;20047;-68
2021/01/17 11:22:32;;;;;;;133.45;40.22;;;;;;;;;;5092878;28;20459;-68
2021/01/17 11:24:58;;;;;;;118.35;36.42;;;;;;;;;;5091124;28;20484;-68
2021/01/17 11:27:33;;;;;;;147.95;41.88;;;;;;;;;;5090735;28;21050;-68
2021/01/17 11:29:59;;;;;;;127.00;38.22;;;;;;;;;;5091055;28;20040;-69
2021/01/17 11:32:30;;;;;;;173.48;45.42;;;;;;;;;;5091217;28;20046;-69
2021/01/17 11:34:57;;;;;;;141.13;42.33;;;;;;;;;;5090020;28;20392;-68
2021/01/17 11:37:39;;;;;;;137.55;41.25;;;;;;;;;;5091773;28;20406;-68
2021/01/17 11:40:10;;;;;;;141.98;40.30;;;;;;;;;;5090929;28;20118;-68
2021/01/17 11:42:36;;;;;;;139.65;40.10;;;;;;;;;;5095103;28;20056;-67
2021/01/17 11:45:14;;;;;;;164.75;43.78;;;;;;;;;;5094428;28;20494;-68
2021/01/17 11:47:43;;;;;;;168.77;46.50;;;;;;;;;;5095403;27;20046;-67
2021/01/17 11:50:16;;;;;;;149.98;36.88;;;;;;;;;;5091292;28;20036;-66
2021/01/17 11:52:43;;;;;;;171.48;41.05;;;;;;;;;;5091594;28;20055;-66
2021/01/17 11:55:10;;;;;;;173.23;45.42;;;;;;;;;;5092559;28;20090;-68
2021/01/17 11:57:37;;;;;;;174.52;42.60;;;;;;;;;;5091784;27;20047;-65
2021/01/17 12:00:05;;;;;;;193.25;41.60;;;;;;;;;;5090815;28;20506;-65
2021/01/17 12:02:39;;;;;;;154.27;39.15;;;;;;;;;;5087604;28;20227;-66
2021/01/17 12:05:05;;;;;;;159.23;41.45;;;;;;;;;;5094872;28;20078;-65
2021/01/17 12:07:32;;;;;;;156.85;40.28;;;;;;;;;;5091985;28;20056;-66
2021/01/17 12:10:04;;;;;;;160.40;41.13;;;;;;;;;;5089866;28;20036;-66
2021/01/17 12:12:34;;;;;;;164.10;39.95;;;;;;;;;;5091031;28;20044;-66
2021/01/17 12:15:00;;;;;;;160.88;38.17;;;;;;;;;;5093219;28;20054;-66
2021/01/17 12:17:27;;;;;;;170.82;39.47;;;;;;;;;;5090655;28;20155;-65
2021/01/17 12:19:53;;;;;;;133.25;33.95;;;;;;;;;;5091066;28;20058;-66
2021/01/17 12:22:20;;;;;;;107.22;28.95;;;;;;;;;;5095082;28;20071;-66
2021/01/17 12:24:46;;;;;;;65.25;17.90;;;;;;;;;;5094050;28;20067;-65
2021/01/17 12:27:12;;;;;;;49.20;10.82;;;;;;;;;;5094838;28;20132;-66
2021/01/17 12:29:39;;;;;;;64.70;9.50;;;;;;;;;;5091983;28;20035;-66
2021/01/17 12:32:05;;;;;;;43.20;7.78;;;;;;;;;;5090380;28;20063;-66
2021/01/17 12:34:31;;;;;;;38.92;7.28;;;;;;;;;;5092230;28;20036;-66
2021/01/17 12:36:58;;;;;;;49.25;6.55;;;;;;;;;;5099371;28;20108;-66
2021/01/17 12:39:24;;;;;;;41.67;6.22;;;;;;;;;;5092248;28;20032;-66
2021/01/17 12:41:52;;;;;;;38.60;5.88;;;;;;;;;;5091129;28;20147;-66
2021/01/17 12:44:18;;;;;;;58.85;7.38;;;;;;;;;;5094134;28;20084;-66
2021/01/17 12:46:45;;;;;;;50.78;6.30;;;;;;;;;;5104914;28;20065;-66
2021/01/17 12:49:13;;;;;;;47.47;6.38;;;;;;;;;;5095295;28;20397;-66
2021/01/17 12:51:40;;;;;;;46.42;5.88;;;;;;;;;;5094129;28;20514;-66
2021/01/17 12:54:06;;;;;;;51.92;6.72;;;;;;;;;;5100648;28;20039;-67
2021/01/17 12:56:32;;;;;;;54.55;7.43;;;;;;;;;;5095402;28;20040;-66
2021/01/17 12:58:59;;;;;;;52.33;7.07;;;;;;;;;;5099866;28;20432;-66
2021/01/17 13:01:25;;;;;;;56.58;6.45;;;;;;;;;;5094960;28;20123;-66
2021/01/17 13:03:52;;;;;;;52.40;6.22;;;;;;;;;;5095929;28;20427;-66
2021/01/17 13:06:18;;;;;;;43.58;5.75;;;;;;;;;;5092645;28;20175;-66
2021/01/17 13:08:45;;;;;;;39.42;5.43;;;;;;;;;;5089279;28;20123;-66
2021/01/17 13:11:13;;;;;;;46.67;6.13;;;;;;;;;;5089623;28;20048;-66
2021/01/17 13:13:40;;;;;;;48.05;6.65;;;;;;;;;;5090435;28;20067;-66
2021/01/17 13:16:07;;;;;;;46.40;6.65;;;;;;;;;;5092674;28;20188;-66
2021/01/17 13:18:34;;;;;;;44.08;6.00;;;;;;;;;;5097795;28;20486;-65
2021/01/17 13:21:02;;;;;;;48.78;6.68;;;;;;;;;;5095700;28;20075;-65
2021/01/17 13:23:29;;;;;;;46.13;5.45;;;;;;;;;;5090773;28;20472;-65
2021/01/17 13:25:55;;;;;;;44.95;6.25;;;;;;;;;;5092482;28;20115;-65
2021/01/17 13:28:23;;;;;;;43.88;6.40;;;;;;;;;;5091787;28;20159;-65
2021/01/17 13:30:49;;;;;;;50.67;7.57;;;;;;;;;;5090647;28;20467;-65
2021/01/17 13:33:16;;;;;;;47.83;6.13;;;;;;;;;;5095852;28;20093;-65
2021/01/17 13:35:46;;;;;;;42.30;5.53;;;;;;;;;;5091131;28;20087;-65
2021/01/17 13:38:13;;;;;;;42.30;5.55;;;;;;;;;;5098416;28;20096;-65
2021/01/17 13:40:40;;;;;;;37.95;5.65;;;;;;;;;;5094527;28;20044;-65
2021/01/17 13:43:07;;;;;;;43.53;6.32;;;;;;;;;;5092557;28;20047;-66
2021/01/17 13:45:33;;;;;;;50.85;7.13;;;;;;;;;;5097106;28;20147;-66
2021/01/17 13:48:01;;;;;;;41.15;5.15;;;;;;;;;;5094020;28;20051;-66
2021/01/17 13:50:27;;;;;;;58.72;7.25;;;;;;;;;;5093932;28;20123;-65
2021/01/17 13:52:53;;;;;;;59.60;5.88;;;;;;;;;;5097302;28;20093;-66
2021/01/17 13:55:20;;;;;;;46.83;6.35;;;;;;;;;;5094857;28;20061;-65
2021/01/17 13:57:46;;;;;;;53.58;7.53;;;;;;;;;;5093053;28;20513;-65
2021/01/17 14:00:13;;;;;;;53.20;7.18;;;;;;;;;;5095534;28;20039;-65
2021/01/17 14:02:40;;;;;;;54.33;7.40;;;;;;;;;;5092779;28;20094;-65
2021/01/17 14:05:07;;;;;;;50.28;7.03;;;;;;;;;;5092943;28;20044;-65
2021/01/17 14:07:34;;;;;;;48.00;5.78;;;;;;;;;;5092985;28;20072;-65
2021/01/17 14:10:00;;;;;;;43.72;5.78;;;;;;;;;;5092423;28;20032;-65
2021/01/17 14:12:26;;;;;;;44.38;6.28;;;;;;;;;;5093563;28;20117;-65
2021/01/17 14:14:53;;;;;;;50.85;5.50;;;;;;;;;;5092618;28;20479;-65
2021/01/17 14:17:21;;;;;;;44.63;6.25;;;;;;;;;;5092420;28;20398;-65
2021/01/17 14:19:48;;;;;;;41.22;6.57;;;;;;;;;;5093093;28;20127;-65